Weather at Glasgow Prestwick Airport

Public forecast

Using degrees Celsius for public forecast. Weather courtesy of forecast.io.

Current aviation weather report (METAR) for Glasgow Prestwick Airport

2024/06/15 17:20 (retrieved 24 minutes ago)

EGPK 151720Z 24006KT 9999 FEW020 SCT035 13/09 Q0996

Aviation forecast (TAF) for Glasgow Prestwick Airport

2024/06/15 12:09 (retrieved 6 hours ago)

TAF TAF EGPK 151057Z 1512/1612 VRB03KT 9999 FEW030 PROB30 TEMPO 1512/1515 6000 SHRA PROB40 TEMPO 1515/1603 6000 SHRA BECMG 1600/1603 24010KT PROB30 TEMPO 1603/1612 6000 SHRA BKN010